Time;durP1;ratioP1;P1;durP2;ratioP2;P2;SDS_P1;SDS_P2;PMS_P1;PMS_P2;Temp;Humidity;BMP_temperature;BMP_pressure;BME280_temperature;BME280_humidity;BME280_pressure;Samples;Min_cycle;Max_cycle;Signal;HPM_P1;HPM_P2
2022/02/25 00:01:58;;;;;;;;;5.75;0.75;;;;;7.28;62.02;102070.81;5076830;28;45472;-77
2022/02/25 00:04:23;;;;;;;;;2.00;0.00;;;;;7.26;62.05;102074.22;5077004;28;45451;-76
2022/02/25 00:06:49;;;;;;;;;1.00;1.00;;;;;7.28;62.37;102077.78;5074922;28;47145;-75
2022/02/25 00:09:14;;;;;;;;;1.00;1.00;;;;;7.27;62.21;102083.88;5076915;28;45288;-76
2022/02/25 00:11:39;;;;;;;;;5.50;1.00;;;;;7.26;61.92;102088.25;5076755;28;45746;-77
2022/02/25 00:14:05;;;;;;;;;1.75;1.75;;;;;7.16;62.38;102078.16;5077129;28;45467;-78
2022/02/25 00:16:30;;;;;;;;;3.50;1.00;;;;;7.15;61.14;102083.34;5076573;28;52386;-76
2022/02/25 00:18:56;;;;;;;;;2.75;1.75;;;;;7.17;61.98;102095.69;5076113;28;49578;-76
2022/02/25 00:21:21;;;;;;;;;0.00;0.00;;;;;7.10;61.87;102093.63;5076569;28;45509;-76
2022/02/25 00:23:46;;;;;;;;;2.00;0.00;;;;;7.13;62.91;102109.50;5076773;28;45490;-76
2022/02/25 00:26:12;;;;;;;;;3.50;1.00;;;;;7.07;62.22;102104.88;5076523;28;46543;-77
2022/02/25 00:28:37;;;;;;;;;0.50;0.50;;;;;7.03;62.43;102100.34;5076565;28;45387;-77
2022/02/25 00:31:03;;;;;;;;;2.75;0.75;;;;;7.03;62.38;102096.78;5076564;28;45870;-76
2022/02/25 00:33:28;;;;;;;;;3.00;0.00;;;;;7.01;62.84;102112.50;5076902;28;45460;-76
2022/02/25 00:35:53;;;;;;;;;6.50;2.00;;;;;7.03;62.73;102117.81;5070400;28;46744;-77
2022/02/25 00:38:19;;;;;;;;;3.75;1.00;;;;;7.03;62.85;102117.81;5061773;28;45351;-77
2022/02/25 00:40:45;;;;;;;;;5.00;1.00;;;;;7.02;62.63;102127.41;5079864;28;45434;-77
2022/02/25 00:43:10;;;;;;;;;3.00;0.50;;;;;7.03;63.09;102123.06;5080039;28;45495;-76
2022/02/25 00:45:36;;;;;;;;;1.25;0.00;;;;;7.02;62.74;102129.13;5079563;28;49132;-76
2022/02/25 00:48:02;;;;;;;;;2.50;0.00;;;;;7.03;62.80;102128.31;5079943;28;45297;-76
2022/02/25 00:50:27;;;;;;;;;1.75;1.00;;;;;7.04;62.89;102128.41;5079699;28;45348;-76
2022/02/25 00:52:53;;;;;;;;;5.00;1.00;;;;;7.04;62.96;102132.75;5061665;28;45360;-76
2022/02/25 00:55:19;;;;;;;;;3.00;0.75;;;;;7.03;63.42;102144.06;5079653;28;47550;-77
2022/02/25 00:57:47;;;;;;;;;1.75;1.50;;;;;7.01;63.00;102141.38;5079791;28;45385;-77
2022/02/25 01:00:14;;;;;;;;;1.00;0.00;;;;;7.03;62.96;102145.00;5044656;28;45367;-77
2022/02/25 01:02:40;;;;;;;;;2.00;1.00;;;;;6.96;63.20;102137.63;5079901;28;45585;-77
2022/02/25 01:05:06;;;;;;;;;0.50;0.50;;;;;7.00;63.04;102147.47;5061646;28;47737;-76
2022/02/25 01:07:31;;;;;;;;;4.25;1.00;;;;;6.98;63.03;102143.88;5077501;28;45316;-77
2022/02/25 01:09:56;;;;;;;;;4.00;0.75;;;;;6.97;63.35;102146.41;5079530;28;45192;-77
2022/02/25 01:12:22;;;;;;;;;3.50;0.00;;;;;6.96;63.29;102144.63;5079282;28;45173;-77
2022/02/25 01:14:47;;;;;;;;;2.00;1.00;;;;;6.88;63.60;102149.53;5078934;28;51771;-77
2022/02/25 01:17:13;;;;;;;;;0.50;0.50;;;;;6.92;63.45;102161.03;5078113;28;45443;-77
2022/02/25 01:19:38;;;;;;;;;2.00;0.00;;;;;6.88;63.09;102161.75;5078913;28;46826;-76
2022/02/25 01:22:03;;;;;;;;;3.25;1.00;;;;;6.92;63.41;102164.56;5079080;28;46902;-77
2022/02/25 01:24:29;;;;;;;;;4.25;1.00;;;;;6.92;63.37;102167.19;5079060;28;45324;-77
2022/02/25 01:26:54;;;;;;;;;1.75;0.00;;;;;6.90;63.73;102162.72;5061132;28;45454;-76
2022/02/25 01:29:20;;;;;;;;;2.75;1.00;;;;;6.95;63.82;102158.56;5079093;28;45238;-76
2022/02/25 01:31:46;;;;;;;;;1.25;0.00;;;;;6.94;63.84;102162.94;5061318;28;45447;-77
2022/02/25 01:34:11;;;;;;;;;3.00;0.00;;;;;6.95;63.60;102167.34;5078868;28;48017;-76
2022/02/25 01:36:37;;;;;;;;;1.00;0.00;;;;;6.95;63.41;102169.09;5072183;28;45354;-76
2022/02/25 01:39:03;;;;;;;;;2.00;1.00;;;;;6.94;63.53;102173.44;5078904;28;47100;-76
2022/02/25 01:41:30;;;;;;;;;5.00;0.00;;;;;6.93;63.30;102168.13;5079136;28;45456;-76
2022/02/25 01:44:18;;;;;;;;;3.00;0.00;;;;;6.93;63.74;102171.66;5078461;28;47437;-76
2022/02/25 01:46:55;;;;;;;;;1.00;1.00;;;;;6.93;64.10;102178.63;5078094;28;45695;-76
2022/02/25 01:49:21;;;;;;;;;4.25;1.00;;;;;6.88;64.09;102156.50;5078995;28;45887;-77
2022/02/25 01:51:46;;;;;;;;;1.50;1.00;;;;;6.89;63.84;102153.03;5078625;28;45300;-76
2022/02/25 01:54:12;;;;;;;;;1.50;0.50;;;;;6.93;63.44;102162.88;5078603;28;46490;-76
2022/02/25 01:56:38;;;;;;;;;4.00;1.00;;;;;6.92;62.89;102164.56;5043699;28;45332;-76
2022/02/25 01:59:04;;;;;;;;;1.00;1.00;;;;;6.91;63.88;102164.50;5078775;28;46535;-77
2022/02/25 02:01:29;;;;;;;;;2.00;1.00;;;;;6.87;64.12;102166.09;5078743;28;45541;-76
2022/02/25 02:03:57;;;;;;;;;2.75;0.00;;;;;6.90;64.00;102170.59;5078417;28;52162;-76
2022/02/25 02:06:23;;;;;;;;;1.25;0.00;;;;;6.83;63.90;102169.41;5076377;28;45471;-76
2022/02/25 02:08:48;;;;;;;;;5.00;0.00;;;;;6.86;64.08;102171.25;5060508;28;45224;-77
2022/02/25 02:11:29;;;;;;;;;5.50;1.00;;;;;6.84;64.10;102165.94;5078668;28;45312;-77
2022/02/25 02:13:55;;;;;;;;;1.00;1.00;;;;;6.80;62.91;102172.75;5055067;28;47526;-76
2022/02/25 02:16:21;;;;;;;;;0.00;0.00;;;;;6.77;63.22;102163.88;5078252;28;45256;-76
2022/02/25 02:18:46;;;;;;;;;1.00;0.00;;;;;6.81;63.96;102171.03;5078190;28;46031;-76
2022/02/25 02:21:12;;;;;;;;;1.00;1.00;;;;;6.81;63.98;102165.78;5060080;28;45539;-77
2022/02/25 02:23:37;;;;;;;;;1.00;0.00;;;;;6.77;63.29;102166.50;5077807;28;54964;-76
2022/02/25 02:26:02;;;;;;;;;9.00;1.00;;;;;6.75;63.39;102157.63;5078316;28;45326;-76
2022/02/25 02:28:28;;;;;;;;;2.50;0.25;;;;;6.76;63.76;102159.41;5078379;28;45331;-76
2022/02/25 02:30:53;;;;;;;;;4.75;1.00;;;;;6.72;63.25;102168.00;5078371;28;45173;-76
2022/02/25 02:33:19;;;;;;;;;2.25;1.00;;;;;6.63;63.55;102157.03;5077956;28;47400;-76
2022/02/25 02:35:45;;;;;;;;;2.50;0.00;;;;;6.61;63.59;102154.34;5071119;28;45477;-76
2022/02/25 02:38:10;;;;;;;;;1.50;1.25;;;;;6.63;63.95;102160.56;5078338;28;45316;-76
2022/02/25 02:40:35;;;;;;;;;5.25;0.00;;;;;6.62;64.11;102177.16;5078022;28;45361;-77
2022/02/25 02:43:01;;;;;;;;;6.00;0.75;;;;;6.62;63.76;102166.66;5189077;22;47502;-76
2022/02/25 02:45:26;;;;;;;;;1.00;1.00;;;;;6.59;63.67;102166.47;5078540;27;45563;-76
2022/02/25 02:47:52;;;;;;;;;3.25;1.25;;;;;6.58;63.71;102154.19;5077931;28;45486;-76
2022/02/25 02:50:17;;;;;;;;;2.75;0.00;;;;;6.58;63.80;102164.69;5077628;28;48888;-77
2022/02/25 02:52:43;;;;;;;;;1.00;0.00;;;;;6.59;63.37;102157.72;5077608;28;46346;-76
2022/02/25 02:55:08;;;;;;;;;1.50;1.00;;;;;6.60;64.22;102152.53;5077820;28;45431;-76
2022/02/25 02:57:34;;;;;;;;;3.25;0.00;;;;;6.56;63.92;102143.63;5077815;28;45448;-76
2022/02/25 02:59:59;;;;;;;;;7.25;0.00;;;;;6.55;64.13;102138.28;5077704;28;45641;-76
2022/02/25 03:02:25;;;;;;;;;3.50;0.25;;;;;6.55;63.87;102151.41;5077287;28;54087;-77
2022/02/25 03:04:50;;;;;;;;;1.50;0.25;;;;;6.51;64.10;102141.63;5077517;28;49794;-77
2022/02/25 03:07:15;;;;;;;;;1.50;0.00;;;;;6.54;64.28;102155.75;5075754;28;45298;-76
2022/02/25 03:09:41;;;;;;;;;0.75;0.00;;;;;6.52;63.66;102159.16;5077391;28;46238;-76
2022/02/25 03:12:08;;;;;;;;;6.50;0.00;;;;;6.49;63.99;102159.00;5042534;28;47756;-77
2022/02/25 03:14:34;;;;;;;;;1.00;0.00;;;;;6.48;64.50;102157.19;5059640;28;45245;-76
2022/02/25 03:16:59;;;;;;;;;1.75;0.00;;;;;6.52;64.28;102169.66;5077504;28;45386;-76
2022/02/25 03:19:24;;;;;;;;;6.25;1.00;;;;;6.49;64.65;102156.38;5077138;28;45445;-76
2022/02/25 03:21:50;;;;;;;;;3.25;0.00;;;;;6.52;64.14;102165.28;5076860;28;51379;-77
2022/02/25 03:24:15;;;;;;;;;0.50;0.50;;;;;6.52;64.61;102156.53;5077554;28;45271;-77
2022/02/25 03:26:41;;;;;;;;;2.75;1.00;;;;;6.50;64.25;102155.56;5077665;28;45756;-77
2022/02/25 03:29:06;;;;;;;;;2.00;0.75;;;;;6.46;64.52;102154.50;5077419;28;45537;-77
2022/02/25 03:31:31;;;;;;;;;1.75;1.00;;;;;6.45;64.25;102164.94;5077144;28;46438;-77
2022/02/25 03:33:57;;;;;;;;;1.50;0.00;;;;;6.42;64.62;102167.41;5077103;28;45326;-77
2022/02/25 03:36:22;;;;;;;;;1.50;0.50;;;;;6.43;64.53;102171.81;5059161;28;45679;-76
2022/02/25 03:38:48;;;;;;;;;3.50;0.00;;;;;6.42;64.68;102162.16;5077061;28;45329;-77
2022/02/25 03:41:13;;;;;;;;;1.00;0.00;;;;;6.37;64.51;102163.66;5076909;28;51272;-77
2022/02/25 03:43:38;;;;;;;;;0.50;0.00;;;;;6.39;64.24;102185.59;5076729;28;45284;-77
2022/02/25 03:46:04;;;;;;;;;0.00;0.00;;;;;6.37;64.52;102171.50;5077128;28;45367;-77
2022/02/25 03:48:29;;;;;;;;;0.00;0.00;;;;;6.37;64.71;102176.75;5077211;28;45526;-77
2022/02/25 03:50:55;;;;;;;;;2.00;0.00;;;;;6.35;64.31;102178.41;5076801;28;47669;-77
2022/02/25 03:53:20;;;;;;;;;2.00;0.00;;;;;6.29;64.47;102155.41;5076844;28;45334;-76
2022/02/25 03:55:45;;;;;;;;;1.25;0.00;;;;;6.36;64.43;102181.09;5059107;28;45328;-77
2022/02/25 03:58:11;;;;;;;;;2.00;1.00;;;;;6.36;64.58;102190.72;5076864;28;45272;-77
2022/02/25 04:00:36;;;;;;;;;0.75;0.00;;;;;6.31;64.58;102182.59;5077035;28;46091;-77
2022/02/25 04:03:02;;;;;;;;;5.25;0.00;;;;;6.37;64.43;102195.13;5076976;28;45333;-76
2022/02/25 04:05:28;;;;;;;;;1.00;0.00;;;;;6.35;64.53;102192.44;5077007;28;45371;-76
2022/02/25 04:07:56;;;;;;;;;1.25;0.00;;;;;6.37;64.73;102195.13;5076720;28;45462;-76
2022/02/25 04:10:21;;;;;;;;;1.50;1.00;;;;;6.33;64.28;102191.44;5077286;28;47629;-77
2022/02/25 04:12:47;;;;;;;;;2.00;0.00;;;;;6.37;64.73;102198.66;5080246;28;45382;-77
2022/02/25 04:15:13;;;;;;;;;0.00;0.00;;;;;6.30;64.37;102188.69;5080413;28;45264;-77
2022/02/25 04:17:38;;;;;;;;;1.75;0.00;;;;;6.36;64.38;102206.44;5080129;28;45108;-77
2022/02/25 04:20:06;;;;;;;;;0.00;0.00;;;;;6.28;64.63;102186.00;5079948;28;47354;-77
2022/02/25 04:22:31;;;;;;;;;1.00;0.00;;;;;6.35;64.94;102207.28;5080141;28;45564;-77
2022/02/25 04:24:57;;;;;;;;;1.00;0.00;;;;;6.34;64.79;102202.81;5080386;28;45306;-77
2022/02/25 04:27:22;;;;;;;;;1.00;0.00;;;;;6.36;64.95;102206.44;5080431;28;45296;-77
2022/02/25 04:29:48;;;;;;;;;2.25;0.25;;;;;6.34;64.80;102205.44;5080091;28;45309;-77
2022/02/25 04:32:13;;;;;;;;;1.00;0.25;;;;;6.36;65.06;102224.81;5079750;28;45446;-77
2022/02/25 04:34:39;;;;;;;;;7.00;0.00;;;;;6.33;64.75;102219.41;5076812;28;48268;-76
2022/02/25 04:37:04;;;;;;;;;0.50;0.00;;;;;6.33;64.62;102216.78;5074986;28;45213;-76
2022/02/25 04:39:30;;;;;;;;;1.75;0.00;;;;;6.36;64.59;102227.44;5061613;28;50735;-77
2022/02/25 04:41:55;;;;;;;;;4.00;0.00;;;;;6.36;65.05;102232.69;5079701;28;45856;-76
2022/02/25 04:44:22;;;;;;;;;2.00;0.00;;;;;6.29;64.82;102214.00;5080078;28;45404;-76
2022/02/25 04:46:47;;;;;;;;;1.00;0.00;;;;;6.28;65.19;102224.41;5079627;28;45341;-76
2022/02/25 04:49:12;;;;;;;;;0.00;0.00;;;;;6.30;65.01;102231.53;5079684;28;47311;-77
2022/02/25 04:51:38;;;;;;;;;1.00;1.00;;;;;6.29;65.16;102232.38;5061457;28;45318;-77
2022/02/25 04:54:04;;;;;;;;;0.00;0.00;;;;;6.24;64.73;102227.72;5079753;28;45474;-76
2022/02/25 04:56:29;;;;;;;;;0.00;0.00;;;;;6.22;65.26;102219.75;5080022;28;45534;-77
2022/02/25 04:58:55;;;;;;;;;1.00;0.00;;;;;6.24;65.28;102230.34;5079531;28;51107;-77
2022/02/25 05:01:20;;;;;;;;;1.00;0.00;;;;;6.29;65.28;102241.97;5079598;28;45279;-77
2022/02/25 05:03:45;;;;;;;;;1.50;0.00;;;;;6.30;65.50;102242.03;5079651;28;45303;-76
2022/02/25 05:06:11;;;;;;;;;0.00;0.00;;;;;6.23;65.46;102223.28;5078848;28;45331;-76
2022/02/25 05:08:36;;;;;;;;;1.00;0.00;;;;;6.25;65.37;102229.50;5079398;28;46531;-76
2022/02/25 05:11:02;;;;;;;;;0.00;0.00;;;;;6.26;65.37;102242.69;5079236;28;45296;-76
2022/02/25 05:13:27;;;;;;;;;2.75;1.00;;;;;6.27;65.37;102247.13;5079452;28;45632;-77
2022/02/25 05:21:20;;;;;;;;;3.25;0.00;;;;;6.22;65.42;102248.59;5079103;28;45453;-77
2022/02/25 05:23:46;;;;;;;;;0.75;0.00;;;;;6.28;65.52;102250.63;5079295;28;46133;-77
2022/02/25 05:26:11;;;;;;;;;0.00;0.00;;;;;6.24;65.46;102259.19;5079389;28;45441;-76
2022/02/25 05:28:39;;;;;;;;;1.00;0.00;;;;;6.26;65.58;102255.81;5079251;28;46875;-77
2022/02/25 05:31:04;;;;;;;;;0.00;0.00;;;;;6.25;65.36;102263.63;5079416;28;45364;-76
2022/02/25 05:33:30;;;;;;;;;2.50;1.00;;;;;6.21;65.53;102265.16;5078946;28;45472;-76
2022/02/25 05:35:55;;;;;;;;;1.75;0.50;;;;;6.24;65.84;102261.81;5072388;28;45462;-76
2022/02/25 05:38:21;;;;;;;;;0.50;0.00;;;;;6.27;66.00;102264.56;5078911;28;46618;-77
2022/02/25 05:40:46;;;;;;;;;0.25;0.25;;;;;6.27;65.98;102265.47;5078990;28;47711;-76
2022/02/25 05:43:11;;;;;;;;;1.00;0.25;;;;;6.28;65.81;102263.75;5078851;28;45715;-77
2022/02/25 05:45:37;;;;;;;;;0.00;0.00;;;;;6.28;65.77;102264.69;5078978;28;45332;-77
2022/02/25 05:48:03;;;;;;;;;3.25;0.00;;;;;6.30;65.64;102272.63;5060738;28;47420;-76
2022/02/25 05:50:28;;;;;;;;;0.00;0.00;;;;;6.29;65.85;102274.34;5078862;28;45276;-76
2022/02/25 05:52:54;;;;;;;;;5.25;0.50;;;;;6.23;65.83;102268.78;5060339;28;45485;-76
2022/02/25 05:55:20;;;;;;;;;1.00;0.00;;;;;6.26;65.94;102279.41;5078943;28;45266;-77
2022/02/25 05:57:46;;;;;;;;;0.50;0.00;;;;;6.29;66.05;102291.81;5078361;28;46734;-77
2022/02/25 06:00:12;;;;;;;;;0.00;0.00;;;;;6.30;65.83;102301.47;5060615;28;45462;-76
2022/02/25 06:02:38;;;;;;;;;0.75;0.75;;;;;6.30;66.00;102291.88;5060488;28;45406;-77
2022/02/25 06:05:04;;;;;;;;;3.50;1.00;;;;;6.27;66.08;102283.84;5079006;28;45451;-77
2022/02/25 06:07:29;;;;;;;;;2.00;0.00;;;;;6.34;66.07;102308.69;5076626;28;47687;-76
2022/02/25 06:09:55;;;;;;;;;1.00;1.00;;;;;6.27;66.01;102289.06;5078794;28;45359;-77
2022/02/25 06:12:20;;;;;;;;;0.00;0.00;;;;;6.35;66.18;102299.09;5078786;28;45420;-77
2022/02/25 06:14:46;;;;;;;;;1.50;0.00;;;;;6.35;66.17;102305.22;5078382;28;45343;-77
2022/02/25 06:17:11;;;;;;;;;5.75;0.00;;;;;6.35;65.97;102302.63;5078362;28;46650;-77
2022/02/25 06:19:36;;;;;;;;;4.50;0.75;;;;;6.33;65.92;102303.34;5077993;28;45435;-78
2022/02/25 06:22:02;;;;;;;;;9.00;1.00;;;;;6.40;66.29;102313.34;5078065;28;45662;-76
2022/02/25 06:24:27;;;;;;;;;5.75;0.25;;;;;6.39;66.19;102308.91;5078451;28;45483;-77
2022/02/25 06:26:53;;;;;;;;;1.25;1.00;;;;;6.39;65.84;102320.31;5078338;28;46570;-76
2022/02/25 06:29:18;;;;;;;;;2.75;0.00;;;;;6.34;65.89;102316.56;5060091;28;45328;-77
2022/02/25 06:31:44;;;;;;;;;1.75;0.25;;;;;6.38;66.54;102328.97;5078023;28;45331;-76
2022/02/25 06:34:09;;;;;;;;;2.00;0.00;;;;;6.33;66.11;102319.06;5059400;28;45292;-77
2022/02/25 06:36:34;;;;;;;;;3.00;0.00;;;;;6.32;66.30;102318.19;5077789;28;47029;-77
2022/02/25 06:39:00;;;;;;;;;3.00;0.00;;;;;6.34;66.10;102321.81;5078048;28;45374;-76
2022/02/25 06:41:25;;;;;;;;;1.75;0.00;;;;;6.40;66.35;102337.84;5078295;28;45387;-77
2022/02/25 06:43:51;;;;;;;;;0.00;0.00;;;;;6.42;66.27;102336.19;5077550;28;48576;-77
2022/02/25 06:46:16;;;;;;;;;5.00;0.00;;;;;6.41;66.10;102333.50;5077810;28;52548;-76
2022/02/25 06:48:42;;;;;;;;;1.75;1.00;;;;;6.42;66.02;102325.69;5078007;28;45353;-76
2022/02/25 06:51:07;;;;;;;;;2.00;0.00;;;;;6.45;66.11;102336.38;5077954;28;45470;-77
2022/02/25 06:53:33;;;;;;;;;3.25;0.50;;;;;6.40;66.08;102324.75;5077922;28;45473;-77
2022/02/25 06:55:59;;;;;;;;;1.75;0.00;;;;;6.39;65.91;102322.00;5077569;28;46222;-77
2022/02/25 06:58:24;;;;;;;;;1.25;1.00;;;;;6.41;65.84;102341.38;5078104;28;45259;-77
2022/02/25 07:00:50;;;;;;;;;5.00;1.00;;;;;6.39;66.02;102348.25;5077743;28;45684;-77
2022/02/25 07:03:15;;;;;;;;;3.25;0.00;;;;;6.35;66.30;102347.22;5077880;28;45182;-77
2022/02/25 07:05:41;;;;;;;;;0.25;0.00;;;;;6.37;66.09;102344.66;5077626;28;45674;-77
2022/02/25 07:08:07;;;;;;;;;1.25;0.00;;;;;6.40;65.99;102353.59;5059052;28;45313;-77
2022/02/25 07:10:33;;;;;;;;;1.00;0.00;;;;;6.37;66.24;102337.69;5073075;28;45261;-77
2022/02/25 07:12:59;;;;;;;;;2.00;1.00;;;;;6.44;66.32;102349.38;5056924;28;45419;-77
2022/02/25 07:15:24;;;;;;;;;0.00;0.00;;;;;6.42;66.37;102349.31;5077507;28;47376;-77
2022/02/25 07:17:50;;;;;;;;;1.00;1.00;;;;;6.40;65.92;102344.81;5076914;28;49204;-76
2022/02/25 07:20:15;;;;;;;;;0.50;0.50;;;;;6.42;65.99;102353.66;5077292;28;45786;-76
2022/02/25 07:22:41;;;;;;;;;4.00;1.00;;;;;6.25;66.01;102330.06;5077363;28;45411;-76
2022/02/25 07:25:07;;;;;;;;;5.00;1.00;;;;;6.36;66.27;102330.63;5059405;28;47464;-77
2022/02/25 07:27:33;;;;;;;;;4.25;0.00;;;;;6.44;66.23;102345.03;5059371;28;45284;-76
2022/02/25 07:29:58;;;;;;;;;1.75;0.00;;;;;6.48;65.94;102349.63;5077324;28;45391;-76
2022/02/25 07:32:24;;;;;;;;;2.00;1.00;;;;;6.55;66.23;102348.22;5077509;28;45213;-76
2022/02/25 07:34:50;;;;;;;;;0.75;0.00;;;;;6.61;65.90;102348.56;5058917;28;47361;-76
2022/02/25 07:37:15;;;;;;;;;4.25;0.75;;;;;6.60;65.53;102344.09;5077107;28;45260;-76
2022/02/25 07:39:40;;;;;;;;;3.50;0.75;;;;;6.63;65.64;102353.88;5077267;28;45462;-76
2022/02/25 07:42:06;;;;;;;;;4.00;0.00;;;;;6.64;65.91;102358.31;5077074;28;45153;-77
2022/02/25 07:44:31;;;;;;;;;3.25;0.50;;;;;6.59;65.93;102359.78;5077090;28;46526;-77
2022/02/25 07:46:57;;;;;;;;;1.00;1.00;;;;;6.64;65.71;102372.31;5079700;28;47753;-77
2022/02/25 07:49:22;;;;;;;;;6.75;1.25;;;;;6.64;65.68;102388.06;5080737;28;45514;-76
2022/02/25 07:51:51;;;;;;;;;1.00;1.00;;;;;6.64;65.72;102374.94;5080577;28;45573;-77
2022/02/25 07:54:18;;;;;;;;;2.75;1.00;;;;;6.69;65.71;102360.34;5062828;28;47520;-77
2022/02/25 07:56:43;;;;;;;;;1.75;0.00;;;;;6.68;65.46;102370.75;5080429;28;45347;-77
2022/02/25 07:59:09;;;;;;;;;1.25;1.25;;;;;6.73;65.75;102375.44;5080611;28;45468;-77
2022/02/25 08:01:34;;;;;;;;;3.00;0.25;;;;;6.76;65.62;102386.06;5062427;28;49057;-76
2022/02/25 08:04:00;;;;;;;;;0.25;0.00;;;;;6.73;65.64;102375.44;5080498;28;46486;-77
2022/02/25 08:06:26;;;;;;;;;4.75;1.00;;;;;6.82;65.76;102381.16;5080209;28;45504;-77
2022/02/25 08:08:51;;;;;;;;;5.25;1.00;;;;;6.83;65.50;102388.19;5080618;28;45386;-76
2022/02/25 08:11:16;;;;;;;;;1.25;0.50;;;;;6.85;65.53;102397.88;5080453;28;45606;-77
2022/02/25 08:13:42;;;;;;;;;4.25;0.75;;;;;6.87;65.74;102398.84;5080144;28;47344;-77
2022/02/25 08:16:07;;;;;;;;;5.25;1.50;;;;;6.90;65.72;102394.66;5080100;28;45271;-77
2022/02/25 08:18:33;;;;;;;;;3.75;1.00;;;;;6.93;65.55;102404.44;5062023;28;45277;-76
2022/02/25 08:20:59;;;;;;;;;8.50;1.00;;;;;6.96;65.36;102407.19;5080236;28;45565;-77
2022/02/25 08:23:24;;;;;;;;;3.00;1.00;;;;;6.94;65.45;102400.97;5080042;28;53850;-77
2022/02/25 08:25:49;;;;;;;;;2.25;1.00;;;;;6.96;65.21;102394.06;5079789;28;51292;-76
2022/02/25 08:28:15;;;;;;;;;1.25;1.00;;;;;7.02;65.16;102411.03;5062251;28;45534;-76
2022/02/25 08:30:42;;;;;;;;;1.75;1.00;;;;;7.05;64.90;102413.81;5080592;28;45415;-77
2022/02/25 08:33:08;;;;;;;;;5.50;1.00;;;;;7.06;65.19;102413.00;5080083;28;46744;-77
2022/02/25 08:35:34;;;;;;;;;4.00;0.50;;;;;7.15;65.33;102417.81;5061658;28;46199;-77
2022/02/25 08:38:00;;;;;;;;;1.00;1.00;;;;;7.16;64.85;102432.75;5079806;28;45438;-77
2022/02/25 08:40:26;;;;;;;;;2.00;1.00;;;;;7.17;65.02;102415.25;5061834;28;45614;-77
2022/02/25 08:42:51;;;;;;;;;6.50;0.00;;;;;7.20;64.82;102421.59;5079559;28;47364;-76
2022/02/25 08:45:17;;;;;;;;;1.25;0.75;;;;;7.26;65.20;102432.41;5079968;28;45404;-76
2022/02/25 08:47:43;;;;;;;;;2.25;1.25;;;;;7.25;65.19;102412.22;5079940;28;45471;-76
2022/02/25 08:50:09;;;;;;;;;3.00;1.00;;;;;7.32;65.10;102431.78;5079904;28;45360;-77
2022/02/25 08:52:34;;;;;;;;;0.75;0.00;;;;;7.33;65.00;102434.50;5061361;28;47569;-77
2022/02/25 08:55:00;;;;;;;;;2.00;1.25;;;;;7.31;64.75;102415.13;5079430;28;49125;-77
2022/02/25 08:57:25;;;;;;;;;5.25;1.00;;;;;7.46;65.03;102435.13;5079667;28;45910;-76
2022/02/25 08:59:50;;;;;;;;;2.00;0.50;;;;;7.50;65.17;102443.19;5079692;28;45549;-77
2022/02/25 09:02:16;;;;;;;;;3.00;1.00;;;;;7.53;64.94;102450.34;5079536;28;46453;-77
2022/02/25 09:04:42;;;;;;;;;1.75;1.00;;;;;7.50;64.81;102450.19;5079459;28;46735;-77
2022/02/25 09:07:08;;;;;;;;;3.75;1.00;;;;;7.55;64.67;102452.22;5079353;28;45304;-78
2022/02/25 09:09:33;;;;;;;;;1.75;0.00;;;;;7.59;64.38;102463.78;5079550;28;45572;-77
2022/02/25 09:11:59;;;;;;;;;2.25;0.00;;;;;7.58;64.51;102469.88;5079261;28;47662;-76
2022/02/25 09:14:24;;;;;;;;;3.00;0.00;;;;;7.59;64.26;102466.41;5079279;28;46194;-77
2022/02/25 09:16:50;;;;;;;;;3.00;0.00;;;;;7.61;64.27;102467.38;5079514;28;45203;-77
2022/02/25 09:19:15;;;;;;;;;2.25;1.00;;;;;7.65;64.62;102474.59;5079104;28;45478;-77
2022/02/25 09:21:41;;;;;;;;;0.75;0.75;;;;;7.70;64.69;102478.38;5079038;28;46410;-77
2022/02/25 09:24:06;;;;;;;;;2.75;0.00;;;;;7.69;64.52;102471.31;5078932;28;45205;-76
2022/02/25 09:26:32;;;;;;;;;2.50;1.25;;;;;7.79;64.03;102486.72;5079440;28;45211;-77
2022/02/25 09:28:58;;;;;;;;;10.25;1.00;;;;;7.82;64.62;102483.31;5079341;28;45642;-77
2022/02/25 09:31:23;;;;;;;;;3.00;1.00;;;;;7.90;64.62;102499.47;5060993;28;46164;-76
2022/02/25 09:33:48;;;;;;;;;2.50;1.00;;;;;7.92;64.56;102492.56;5078934;28;45344;-76
2022/02/25 09:36:14;;;;;;;;;1.00;1.00;;;;;7.95;64.55;102490.09;5054156;28;45600;-77
2022/02/25 09:38:40;;;;;;;;;7.75;2.00;;;;;7.97;64.40;102501.56;5078696;28;45646;-77
2022/02/25 09:41:05;;;;;;;;;3.00;1.75;;;;;7.98;64.11;102483.22;5078917;28;46697;-77
2022/02/25 09:43:31;;;;;;;;;1.00;1.00;;;;;8.05;63.87;102511.66;5060574;28;45330;-77
2022/02/25 09:45:57;;;;;;;;;6.25;2.00;;;;;8.11;63.50;102500.50;5078824;28;45212;-77
2022/02/25 09:48:22;;;;;;;;;3.25;2.25;;;;;8.21;64.15;102505.38;5079306;28;45209;-76
2022/02/25 09:50:51;;;;;;;;;4.00;2.00;;;;;8.26;63.73;102502.97;5078631;28;46465;-77
2022/02/25 09:53:17;;;;;;;;;2.00;0.75;;;;;8.28;63.87;102507.47;5078498;28;45277;-76
2022/02/25 09:55:43;;;;;;;;;5.75;2.00;;;;;8.33;63.98;102508.59;5078809;28;45200;-77
2022/02/25 09:58:08;;;;;;;;;7.00;2.75;;;;;8.40;63.33;102518.59;5060336;28;45314;-76
2022/02/25 10:00:35;;;;;;;;;3.00;1.00;;;;;8.44;62.97;102522.28;5078564;28;47053;-77
2022/02/25 10:03:02;;;;;;;;;1.67;1.00;;;;;8.46;63.02;102528.50;5078766;28;45415;-77
2022/02/25 10:05:28;;;;;;;;;3.00;1.00;;;;;8.53;63.12;102528.00;5078736;28;45253;-77
2022/02/25 10:07:54;;;;;;;;;3.00;1.00;;;;;8.64;62.98;102534.66;5075933;28;45410;-77
2022/02/25 10:10:20;;;;;;;;;4.25;2.00;;;;;8.81;63.17;102542.41;5078381;28;46551;-77
2022/02/25 10:12:47;;;;;;;;;9.67;2.00;;;;;9.08;62.29;102543.66;5078342;28;45590;-76
2022/02/25 10:15:14;;;;;;;;;4.00;1.00;;;;;9.30;62.12;102545.50;5043558;28;45231;-76
2022/02/25 10:17:40;;;;;;;;;5.67;1.33;;;;;9.46;62.22;102541.78;5078276;28;45279;-76
2022/02/25 10:20:07;;;;;;;;;3.67;1.00;;;;;9.51;60.94;102531.44;5078230;28;46536;-77
2022/02/25 10:22:33;;;;;;;;;0.00;0.00;;;;;9.48;61.58;102523.38;5078307;28;45287;-77
2022/02/25 10:25:09;;;;;;;;;6.00;2.25;;;;;9.47;62.05;102537.41;5078485;28;45331;-77
2022/02/25 10:27:35;;;;;;;;;1.00;1.00;;;;;9.48;61.89;102539.22;5060216;28;45566;-77
2022/02/25 10:30:12;;;;;;;;;1.67;1.00;;;;;9.51;61.33;102542.88;5078018;28;47696;-77
2022/02/25 10:32:55;;;;;;;;;1.00;1.00;;;;;9.50;61.06;102554.28;5078145;28;45354;-77
2022/02/25 10:35:33;;;;;;;;;8.00;2.00;;;;;9.57;61.45;102558.06;5071200;28;45371;-77
2022/02/25 10:37:58;;;;;;;;;1.67;0.33;;;;;9.63;61.16;102556.59;5078221;28;45754;-77
2022/02/25 10:40:24;;;;;;;;;3.00;2.00;;;;;9.65;61.38;102551.41;5077809;28;47346;-77
2022/02/25 10:42:50;;;;;;;;;3.00;1.33;;;;;9.68;61.57;102560.31;5077811;28;45337;-78
2022/02/25 10:45:41;;;;;;;;;1.67;1.67;;;;;9.74;61.59;102549.13;5078139;28;45320;-77
2022/02/25 10:48:09;;;;;;;;;2.00;2.00;;;;;9.80;61.66;102540.56;5054931;28;45315;-77
2022/02/25 10:50:54;;;;;;;;;4.00;1.00;;;;;9.86;61.35;102525.91;5077749;28;47602;-77
2022/02/25 10:53:49;;;;;;;;;6.00;1.67;;;;;10.17;60.91;102543.91;5077555;28;45326;-77
2022/02/25 10:56:18;;;;;;;;;9.00;1.67;;;;;10.37;60.35;102546.44;5075797;27;45841;-77
2022/02/25 10:58:47;;;;;;;;;6.00;2.00;;;;;10.58;59.81;102546.38;5059946;28;45444;-77
2022/02/25 11:01:13;;;;;;;;;3.67;2.00;;;;;10.61;59.70;102547.41;5077428;28;47634;-76
2022/02/25 11:03:42;;;;;;;;;7.67;1.00;;;;;10.73;59.43;102545.22;5077471;28;45392;-77
2022/02/25 11:06:10;;;;;;;;;6.67;1.00;;;;;10.80;59.06;102545.44;5076968;28;45686;-77
2022/02/25 11:08:36;;;;;;;;;5.33;1.67;;;;;10.99;59.42;102553.22;5059653;28;45482;-77
2022/02/25 11:11:02;;;;;;;;;4.00;2.00;;;;;10.90;58.85;102537.03;5077576;28;45812;-77
2022/02/25 11:13:27;;;;;;;;;4.33;1.00;;;;;10.88;59.03;102546.66;5077435;28;45268;-77
2022/02/25 11:15:53;;;;;;;;;6.67;2.00;;;;;10.83;58.67;102551.75;5059215;28;45232;-77
2022/02/25 11:18:19;;;;;;;;;4.33;2.00;;;;;10.85;58.84;102546.50;5059503;28;46517;-77
2022/02/25 11:20:44;;;;;;;;;4.00;1.00;;;;;10.80;58.21;102553.38;5059027;28;47434;-77
2022/02/25 11:23:11;;;;;;;;;6.33;2.33;;;;;10.85;59.13;102543.88;5059326;28;45303;-77
2022/02/25 11:25:37;;;;;;;;;3.33;2.00;;;;;10.92;58.80;102551.16;5077482;28;45394;-77
2022/02/25 11:28:03;;;;;;;;;8.00;2.00;;;;;10.96;58.88;102551.34;5059511;28;45447;-77
2022/02/25 11:30:30;;;;;;;;;3.00;2.33;;;;;11.09;58.77;102551.81;5059030;28;48422;-77
2022/02/25 11:33:02;;;;;;;;;9.00;3.00;;;;;11.19;57.87;102552.22;5077389;28;46134;-77